• Join FlightAware (Why Join?)
  • Login
  • US Flag 
05:01PM EDT


 

Airport Tracker/Info


-or-


 

Live Flight TrackerFlight Track Log ✈ OPT438 ✈ 15-Feb-2014 ✈ KFLL - KAUS

Flight Track Log - Related Links

Times and Time Zones

All times are in EST time to prevent confusion due to time zone crossing. See the OPT438 flight status page for this flight to view local times or setup timezone preferences in your user account.

Time Position Orientation Groundspeed Altitude Reporting Facility
EST Latitude Longitude Course Direction KTS MPH feet Rate Location/Type
10:10AM 26.0742 -80.1667 275° West 148 170 700  Level Miami Center
10:11AM 26.0792 -80.2247 275° West 270 311 3,100 2,280 Climbing Miami Center
10:12AM 26.0900 -80.2989 279° West 252 290 5,000 840 Climbing Miami Center
10:13AM 26.1236 -80.3786 295° West 249 287 5,000 780 Level Miami Center
10:14AM 26.1614 -80.4561 299° West 259 298 6,900 2,160 Climbing Miami Center
10:15AM 26.1950 -80.5336 296° West 266 306 9,800 2,220 Climbing Miami Center
10:16AM 26.2347 -80.6136 299° West 277 319 11,400 1,320 Climbing Miami Center
10:17AM 26.3128 -80.6692 327° Northwest 319 367 12,500 1,320 Climbing Miami Center
10:18AM 26.3714 -80.7361 314° West 331 381 14,100 1,680 Climbing Miami Center
10:19AM 26.4358 -80.8286 308° West 344 396 15,900 1,500 Climbing Miami Center
10:20AM 26.4881 -80.9022 308° West 344 396 17,200 1,080 Climbing Miami Center
10:21AM 26.5542 -80.9997 307° West 351 404 18,100 900 Climbing Miami Center
10:22AM 26.6164 -81.0878 308° West 351 404 19,000 1,020 Climbing Miami Center
10:23AM 26.6725 -81.1667 309° West 356 410 20,200 1,200 Climbing Miami Center
10:24AM 26.7328 -81.2503 309° West 356 410 21,400 1,260 Climbing Miami Center
10:25AM 26.7986 -81.3503 306° West 351 404 22,800 1,260 Climbing Miami Center
10:26AM 26.8500 -81.4431 302° West 351 404 24,000 1,200 Climbing Miami Center
10:27AM 26.9011 -81.5383 301° West 351 404 25,200 1,140 Climbing Miami Center
10:28AM 26.9294 -81.6303 289° West 351 404 26,300 1,200 Climbing Miami Center
10:29AM 26.9633 -81.7458 288° West 351 404 27,600 1,200 Climbing Miami Center
10:30AM 26.9931 -81.8494 288° West 351 404 28,800 1,200 Climbing Miami Center
10:31AM 27.0208 -81.9533 287° West 351 404 30,000 1,200 Climbing Miami Center
10:32AM 27.0506 -82.0569 288° West 351 404 31,200 960 Climbing Miami Center
10:33AM 27.0806 -82.1517 290° West 351 404 32,000 600 Climbing Miami Center
10:34AM 27.1078 -82.2625 285° West 356 410 32,500 600 Climbing Miami Center
10:35AM 27.1392 -82.3689 288° West 362 417 33,200 660 Climbing Miami Center
10:36AM 27.1683 -82.4778 287° West 367 422 33,900 720 Climbing Miami Center
10:37AM 27.2033 -82.5983 288° West 373 429 34,700 720 Climbing Miami Center
10:38AM 27.2344 -82.7072 288° West 368 423 35,400 660 Climbing Miami Center
10:39AM 27.2614 -82.8136 286° West 368 423 36,100 600 Climbing Miami Center
10:40AM 27.2908 -82.9108 289° West 368 423 36,700 600 Climbing Miami Center
10:41AM 27.3217 -83.0178 288° West 368 423 37,400 660 Climbing Miami Center
10:42AM 27.3483 -83.1242 286° West 368 423 38,100 660 Climbing Miami Center
10:43AM 27.3750 -83.2286 286° West 363 418 38,800 660 Climbing Miami Center
10:44AM 27.4061 -83.3283 289° West 353 406 39,500 600 Climbing Miami Center
10:45AM 27.4328 -83.4281 287° West 346 398 40,000 240 Climbing Miami Center
10:46AM 27.4575 -83.5253 286° West 340 391 40,000  Level Miami Center
10:47AM 27.4842 -83.6250 287° West 335 386 40,000  Level Miami Center
10:48AM 27.5067 -83.7247 284° West 335 386 40,000  Level Miami Center
10:49AM 27.5353 -83.8222 288° West 335 386 40,000  Level Miami Center
10:50AM 27.5661 -83.9178 290° West 329 379 40,000  Level Miami Center
10:51AM 27.5906 -84.0175 285° West 329 379 40,000  Level Miami Center
10:53AM 27.6486 -84.2278 287° West 334 384 40,000  Level Jacksonville Center
10:54AM 27.6767 -84.3264 288° West 329 379 40,000  Level Jacksonville Center
10:55AM 27.6986 -84.4228 284° West 329 379 40,000  Level Jacksonville Center
10:56AM 27.7181 -84.5217 283° West 322 371 40,000  Level Jacksonville Center
10:57AM 27.7503 -84.6206 290° West 322 371 40,000  Level Jacksonville Center
10:58AM 27.7761 -84.7194 286° West 327 376 40,000  Level Jacksonville Center
10:59AM 27.7975 -84.8278 283° West 326 375 40,000  Level Jacksonville Center
11:00AM 27.8231 -84.9175 288° West 326 375 40,000  Level Jacksonville Center
11:01AM 27.8508 -85.0189 287° West 326 375 40,000  Level Jacksonville Center
11:02AM 27.8761 -85.1181 286° West 326 375 40,000  Level Jacksonville Center
11:03AM 27.9036 -85.2172 287° West 333 383 40,000 -60 Level Jacksonville Center
11:04AM 27.9289 -85.3236 285° West 339 390 39,900  Descending Jacksonville Center
11:05AM 27.9542 -85.4206 286° West 339 390 40,000  Climbing Jacksonville Center
11:06AM 27.9811 -85.5292 286° West 339 390 40,000 -60 Level Jacksonville Center
11:07AM 28.0061 -85.6333 285° West 340 391 39,900  Descending Jacksonville Center
11:08AM 28.0308 -85.7375 285° West 348 400 40,000  Climbing Jacksonville Center
11:09AM 28.0600 -85.8369 288° West 348 400 40,000  Level Jacksonville Center
11:10AM 28.0847 -85.9389 285° West 345 397 40,000  Level Jacksonville Center
11:11AM 28.1114 -86.0431 286° West 345 397 40,000  Level Jacksonville Center
11:12AM 28.1381 -86.1500 286° West 345 397 40,000  Level Jacksonville Center
11:13AM 28.1625 -86.2447 286° West 345 397 40,000  Level Jacksonville Center
11:14AM 28.1869 -86.3517 285° West 338 389 40,000  Level Jacksonville Center
11:15AM 28.2153 -86.4586 287° West 348 400 40,000  Level Jacksonville Center
11:16AM 28.2417 -86.5631 286° West 348 400 40,000  Level Jacksonville Center
11:17AM 28.2656 -86.6678 285° West 342 394 40,000  Level Jacksonville Center
11:18AM 28.2878 -86.7650 285° West 342 394 40,000  Level Jacksonville Center
11:19AM 28.3136 -86.8722 285° West 349 402 40,000  Level Jacksonville Center
11:20AM 28.3397 -86.9769 286° West 343 395 40,000  Level Jacksonville Center
11:21AM 28.3675 -87.0819 287° West 343 395 40,000  Level Jacksonville Center
11:22AM 28.3892 -87.1817 284° West 343 395 40,000  Level Jacksonville Center
11:23AM 28.4150 -87.2867 286° West 344 396 40,000  Level Jacksonville Center
11:24AM 28.4406 -87.3894 286° West 350 403 40,000  Level Jacksonville Center
11:25AM 28.4558 -87.4578 284° West 345 397 40,000  Level Houston Center
11:26AM 28.4778 -87.5519 285° West 342 394 40,000  Level Houston Center
11:27AM 28.5042 -87.6686 284° West 347 399 40,000 -60 Level Houston Center
11:28AM 28.5325 -87.7842 286° West 345 397 39,900  Descending Houston Center
11:29AM 28.5575 -87.8908 285° West 348 400 40,000  Climbing Houston Center
11:30AM 28.5817 -87.9967 285° West 349 402 40,000  Level Houston Center
11:31AM 28.6083 -88.1097 285° West 348 400 40,000  Level Houston Center
11:32AM 28.6339 -88.2178 285° West 353 406 40,000  Level Houston Center
11:33AM 28.6583 -88.3247 285° West 351 404 40,000 -60 Level Houston Center
11:34AM 28.6828 -88.4325 285° West 353 406 39,900  Descending Houston Center
11:35AM 28.7069 -88.5403 284° West 351 404 40,000  Climbing Houston Center
11:36AM 28.7364 -88.6711 284° West 354 407 40,000  Level Houston Center
11:37AM 28.7608 -88.7783 285° West 351 404 40,000  Level Houston Center
11:38AM 28.7853 -88.8867 284° West 354 407 40,000  Level Houston Center
11:39AM 28.8089 -88.9953 284° West 352 405 40,000  Level Houston Center
11:40AM 28.8336 -89.1036 285° West 354 407 40,000  Level Houston Center
11:41AM 28.8572 -89.2114 284° West 351 404 40,000  Level Houston Center
11:42AM 28.8861 -89.3419 284° West 352 405 40,000  Level Houston Center
11:43AM 28.9100 -89.4497 284° West 353 406 40,000  Level Houston Center
11:45AM 28.9339 -89.5572 284° West 349 402 40,000  Level Houston Center
11:46AM 28.9561 -89.6658 283° West 352 405 40,000  Level Houston Center
11:47AM 28.9800 -89.7706 285° West 345 397 40,000  Level Houston Center
11:48AM 29.0031 -89.8792 284° West 349 402 40,000  Level Houston Center
11:49AM 29.0306 -90.0078 284° West 349 402 40,000  Level Houston Center
11:50AM 29.0547 -90.1153 284° West 349 402 40,000  Level Houston Center
11:51AM 29.0772 -90.2244 283° West 352 405 40,000  Level Houston Center
11:52AM 29.1011 -90.3333 284° West 354 407 40,000  Level Houston Center
11:53AM 29.1244 -90.4425 284° West 354 407 40,000  Level Houston Center
11:54AM 29.1472 -90.5522 283° West 355 409 40,000  Level Houston Center
11:55AM 29.1667 -90.6878 279° West 360 414 40,000  Level Houston Center
11:56AM 29.1822 -90.8000 279° West 360 414 40,000  Level Houston Center
11:57AM 29.1983 -90.9142 279° West 363 418 40,000  Level Houston Center
11:58AM 29.2125 -91.0278 278° West 361 415 40,000  Level Houston Center
11:59AM 29.2278 -91.1406 279° West 360 414 40,000  Level Houston Center
12:00PM 29.2414 -91.2550 278° West 362 417 40,000  Level Houston Center
12:01PM 29.2589 -91.3908 278° West 360 414 40,000  Level Houston Center
12:02PM 29.2742 -91.5050 279° West 364 419 40,000  Level Houston Center
12:03PM 29.2883 -91.6183 278° West 361 415 40,000  Level Houston Center
12:04PM 29.3011 -91.7236 278° West 363 418 40,000  Level Houston Center
12:05PM 29.3181 -91.8594 278° West 360 414 40,000  Level Houston Center
12:06PM 29.3325 -91.9731 278° West 362 417 40,000  Level Houston Center
12:07PM 29.3464 -92.0858 278° West 359 413 40,000  Level Houston Center
12:08PM 29.3594 -92.1969 278° West 355 409 40,000  Level Houston Center
12:09PM 29.3731 -92.3075 278° West 351 404 40,000  Level Houston Center
12:10PM 29.3881 -92.4403 277° West 352 405 40,000  Level Houston Center
12:11PM 29.4011 -92.5514 278° West 351 404 40,000  Level Houston Center
12:12PM 29.4144 -92.6600 278° West 347 399 40,000  Level Houston Center
12:14PM 29.4275 -92.7708 278° West 350 403 40,000  Level Houston Center
12:15PM 29.4397 -92.8808 277° West 348 400 40,000  Level Houston Center
12:16PM 29.4533 -92.9917 278° West 350 403 40,000  Level Houston Center
12:17PM 29.4661 -93.1031 278° West 351 404 40,000  Level Houston Center
12:18PM 29.4808 -93.2364 277° West 351 404 40,000  Level Houston Center
12:19PM 29.4933 -93.3469 277° West 350 403 40,000  Level Houston Center
12:20PM 29.5061 -93.4583 278° West 351 404 40,000  Level Houston Center
12:21PM 29.5189 -93.5706 277° West 353 406 40,000  Level Houston Center
12:22PM 29.5306 -93.6819 277° West 352 405 40,000  Level Houston Center
12:23PM 29.5431 -93.7931 277° West 352 405 40,000  Level Houston Center
12:24PM 29.5581 -93.9283 277° West 354 407 40,000  Level Houston Center
12:25PM 29.5694 -94.0394 277° West 352 405 40,000  Level Houston Center
12:26PM 29.5814 -94.1525 277° West 355 409 40,000  Level Houston Center
12:27PM 29.5933 -94.2600 277° West 357 411 40,000 -480 Level Houston Center
12:28PM 29.6050 -94.3736 277° West 358 412 39,100 -1,020 Descending Houston Center
12:29PM 29.6197 -94.5119 277° West 365 420 37,900 -600 Descending Houston Center
12:30PM 29.6308 -94.6244 277° West 358 412 37,900  Level Houston Center
12:31PM 29.6419 -94.7375 276° West 358 412 37,900  Level Houston Center
12:32PM 29.6539 -94.8517 277° West 361 415 37,900  Level Houston Center
12:33PM 29.6653 -94.9672 276° West 364 419 37,900  Level Houston Center
12:34PM 29.6778 -95.0922 277° West 367 422 37,900 -420 Level Houston Center
12:35PM 29.6911 -95.2100 277° West 369 425 37,100 -1,260 Descending Houston Center
12:36PM 29.7014 -95.3356 275° West 374 430 35,300 -1,920 Descending Houston Center
12:37PM 29.7150 -95.4794 276° West 381 438 33,200 -1,860 Descending Houston Center
12:38PM 29.7267 -95.6008 276° West 383 441 31,500 -1,740 Descending Houston Center
12:39PM 29.7383 -95.7256 276° West 391 450 29,700 -1,800 Descending Houston Center
12:40PM 29.7500 -95.8481 276° West 388 447 27,900 -1,740 Descending Houston Center
12:41PM 29.7608 -95.9714 276° West 388 447 26,200 -1,800 Descending Houston Center
12:42PM 29.7758 -96.1100 277° West 385 443 24,200 -1,860 Descending Houston Center
12:44PM 29.8178 -96.2200 294° West 374 430 22,400 -1,680 Descending Houston Center
12:45PM 29.8567 -96.3303 292° West 374 430 20,700 -1,680 Descending Houston Center
12:46PM 29.8972 -96.4397 293° West 374 430 18,900 -1,920 Descending Houston Center
12:47PM 29.9431 -96.5703 292° West 370 426 16,800 -1,860 Descending Houston Center
12:48PM 29.9817 -96.6775 293° West 365 420 15,100 -1,680 Descending Houston Center
12:49PM 30.0192 -96.7803 293° West 354 407 13,400 -1,500 Descending Houston Center
12:50PM 30.0553 -96.8819 292° West 347 399 12,000 -780 Descending Houston Center
12:51PM 30.0861 -96.9875 289° West 349 402 11,900 -480 Descending Houston Center
12:52PM 30.1297 -97.1036 293° West 353 406 11,100 -960 Descending Houston Center
12:53PM 30.1653 -97.1872 296° West 289 333 10,000 -1,080 Descending Houston Center
12:54PM 30.2014 -97.2686 297° West 281 323 8,900 -1,140 Descending Houston Center
12:55PM 30.2394 -97.3472 299° West 278 320 7,700 -1,260 Descending Houston Center
12:56PM 30.2819 -97.4333 300° West 267 307 6,300 -1,740 Descending Houston Center
12:57PM 30.3067 -97.5092 291° West 256 295 4,200 -1,860 Descending Houston Center
12:58PM 30.3275 -97.5806 289° West 244 281 2,500 -840 Descending Houston Center
12:59PM 30.3031 -97.6542 249° West 248 285 2,500 -420 Level Houston Center
01:00PM 30.2606 -97.6586 185° South 175 201 1,700 -780 Descending Houston Center
01:01PM 30.2239 -97.6586 180° South 143 165 900 -840 Descending Houston Center
01:03PM 30.1945 -97.6699 187° South  Level Estimated
01:10PM 30.1945 -97.6699 187° South  Level Estimated